createdAt,value
2017-09-22T00:00:35.302Z,76.70
2017-09-22T00:03:04.137Z,76.80
2017-09-22T00:05:33.295Z,77.00
2017-09-22T00:08:02.358Z,77.20
2017-09-22T00:10:31.345Z,77.20
2017-09-22T00:13:00.781Z,77.30
2017-09-22T00:15:30.152Z,77.30
2017-09-22T00:17:58.850Z,77.90
2017-09-22T00:20:27.521Z,77.60
2017-09-22T00:22:56.207Z,77.70
2017-09-22T00:25:24.892Z,77.90
2017-09-22T00:27:53.577Z,78.10
2017-09-22T00:30:22.263Z,78.10
2017-09-22T00:32:51.153Z,78.00
2017-09-22T00:35:19.942Z,78.20
2017-09-22T00:37:48.954Z,78.30
2017-09-22T00:40:17.934Z,78.40
2017-09-22T00:42:47.970Z,78.80
2017-09-22T00:45:16.737Z,79.00
2017-09-22T00:47:45.633Z,79.20
2017-09-22T00:50:15.338Z,79.10
2017-09-22T00:52:44.231Z,79.40
2017-09-22T00:55:13.531Z,79.60
2017-09-22T00:57:43.316Z,79.80
2017-09-22T01:00:13.184Z,79.80
2017-09-22T01:02:43.301Z,79.70
2017-09-22T01:05:12.647Z,79.80
2017-09-22T01:07:41.722Z,80.20
2017-09-22T01:10:10.821Z,80.40
2017-09-22T01:12:39.663Z,80.20
2017-09-22T01:15:08.856Z,80.30
2017-09-22T01:17:37.952Z,80.40
2017-09-22T01:20:07.181Z,80.50
2017-09-22T01:22:36.552Z,80.50
2017-09-22T01:25:06.148Z,80.50
2017-09-22T01:27:35.276Z,80.50
2017-09-22T01:30:04.441Z,80.40
2017-09-22T01:32:33.535Z,80.50
2017-09-22T01:35:02.562Z,80.50
2017-09-22T01:37:31.949Z,80.40
2017-09-22T01:40:01.656Z,80.40
2017-09-22T01:42:30.346Z,80.40
2017-09-22T01:44:59.520Z,80.40
2017-09-22T01:47:28.235Z,80.20
2017-09-22T01:49:57.937Z,80.00
2017-09-22T01:52:26.827Z,80.00
2017-09-22T01:54:55.661Z,80.00
2017-09-22T01:57:24.670Z,79.90
2017-09-22T01:59:53.503Z,80.00
2017-09-22T02:02:23.281Z,80.20
2017-09-22T02:04:52.115Z,80.20
2017-09-22T02:07:21.015Z,80.00
2017-09-22T02:09:49.889Z,80.30
2017-09-22T02:12:18.573Z,80.50
2017-09-22T02:14:47.568Z,80.30
2017-09-22T02:17:16.562Z,80.30
2017-09-22T02:19:45.500Z,80.10
2017-09-22T02:22:14.393Z,80.30
2017-09-22T02:24:44.166Z,80.40
2017-09-22T02:27:13.880Z,80.80
2017-09-22T02:29:42.760Z,80.70
2017-09-22T02:32:11.861Z,80.80
2017-09-22T02:34:40.746Z,80.70
2017-09-22T02:37:09.685Z,80.80
2017-09-22T02:39:39.408Z,80.70
2017-09-22T02:42:08.342Z,80.60
2017-09-22T02:44:37.232Z,80.60
2017-09-22T02:47:06.085Z,80.50
2017-09-22T02:49:35.011Z,80.30
2017-09-22T02:52:03.699Z,80.40
2017-09-22T02:54:32.601Z,80.40
2017-09-22T02:57:01.580Z,80.60
2017-09-22T02:59:30.472Z,80.40
2017-09-22T03:01:59.304Z,80.30
2017-09-22T03:04:28.151Z,80.50
2017-09-22T03:06:57.990Z,80.40
2017-09-22T03:09:27.129Z,80.40
2017-09-22T03:11:56.140Z,80.60
2017-09-22T03:14:25.150Z,80.70
2017-09-22T03:16:53.939Z,80.90
2017-09-22T03:19:22.730Z,80.80
2017-09-22T03:21:51.473Z,80.80
2017-09-22T03:24:20.921Z,80.70
2017-09-22T03:26:49.605Z,80.70
2017-09-22T03:29:19.525Z,80.60
2017-09-22T03:31:48.413Z,80.70
2017-09-22T03:34:17.514Z,81.00
2017-09-22T03:36:46.294Z,80.50
2017-09-22T03:39:15.185Z,80.60
2017-09-22T03:41:44.076Z,80.70
2017-09-22T03:44:12.711Z,80.80
2017-09-22T03:46:43.039Z,80.70
2017-09-22T03:49:11.985Z,80.60
2017-09-22T03:51:41.290Z,80.70
2017-09-22T03:54:10.001Z,81.00
2017-09-22T03:56:38.902Z,80.90
2017-09-22T03:59:08.571Z,81.30
2017-09-22T04:01:37.400Z,81.20
2017-09-22T04:04:06.248Z,81.30
2017-09-22T04:06:35.139Z,81.40
2017-09-22T04:09:07.793Z,81.20
2017-09-22T04:11:36.777Z,81.20
2017-09-22T04:14:06.215Z,80.90
2017-09-22T04:16:35.174Z,81.40
2017-09-22T04:19:04.098Z,81.00
2017-09-22T04:21:33.061Z,81.20
2017-09-22T04:24:01.852Z,81.20
2017-09-22T04:26:31.758Z,81.70
2017-09-22T04:29:00.686Z,81.70
2017-09-22T04:31:29.680Z,81.50
2017-09-22T04:33:58.528Z,81.20
2017-09-22T04:36:28.178Z,81.30
2017-09-22T04:38:56.876Z,81.30
2017-09-22T04:41:25.659Z,81.30
2017-09-22T04:43:54.550Z,81.30
2017-09-22T04:46:23.885Z,81.50
2017-09-22T04:48:53.009Z,81.60
2017-09-22T04:51:22.254Z,81.90
2017-09-22T04:53:51.133Z,82.20
2017-09-22T04:56:19.974Z,82.40
2017-09-22T04:58:48.784Z,82.50
2017-09-22T05:01:18.631Z,82.90
2017-09-22T05:03:48.455Z,83.10
2017-09-22T05:06:17.587Z,83.00
2017-09-22T05:08:46.647Z,83.20
2017-09-22T05:11:16.959Z,83.20
2017-09-22T05:13:46.774Z,83.20
2017-09-22T05:16:15.663Z,83.40
2017-09-22T05:18:44.574Z,83.80
2017-09-22T05:21:14.178Z,83.90
2017-09-22T05:23:43.152Z,84.10
2017-09-22T05:26:11.839Z,84.10
2017-09-22T05:28:41.033Z,84.00
2017-09-22T05:31:09.823Z,84.00
2017-09-22T05:33:38.514Z,84.00
2017-09-22T05:36:07.609Z,83.70
2017-09-22T05:38:37.524Z,84.10
2017-09-22T05:41:06.526Z,84.40
2017-09-22T05:43:36.427Z,84.40
2017-09-22T05:46:08.790Z,84.60
2017-09-22T05:48:37.898Z,84.70
2017-09-22T05:51:06.892Z,84.70
2017-09-22T05:53:35.770Z,84.70
2017-09-22T05:56:04.980Z,84.60
2017-09-22T05:58:33.769Z,84.50
2017-09-22T06:01:02.660Z,84.70
2017-09-22T06:03:31.498Z,84.70
2017-09-22T06:06:01.231Z,84.60
2017-09-22T06:08:30.340Z,84.60
2017-09-22T06:10:59.406Z,84.70
2017-09-22T06:13:28.669Z,84.60
2017-09-22T06:15:58.515Z,84.60
2017-09-22T06:18:28.281Z,84.30
2017-09-22T06:20:57.333Z,84.30
2017-09-22T06:23:26.261Z,84.10
2017-09-22T06:25:55.051Z,83.70
2017-09-22T06:28:23.778Z,83.50
2017-09-22T06:30:52.846Z,83.50
2017-09-22T06:33:23.402Z,83.10
2017-09-22T06:35:53.203Z,83.00
2017-09-22T06:38:22.270Z,83.10
2017-09-22T06:40:51.404Z,83.00
2017-09-22T06:43:20.366Z,83.10
2017-09-22T06:45:49.590Z,82.60
2017-09-22T06:48:18.870Z,82.30
2017-09-22T06:50:48.776Z,82.00
2017-09-22T06:53:18.992Z,82.00
2017-09-22T06:55:48.609Z,81.70
2017-09-22T06:58:17.496Z,81.40
2017-09-22T07:00:46.760Z,81.30
2017-09-22T07:03:17.223Z,80.80
2017-09-22T07:05:46.229Z,80.80
2017-09-22T07:08:15.253Z,79.80
2017-09-22T07:10:45.946Z,78.30
2017-09-22T07:13:15.656Z,75.60
2017-09-22T07:15:44.612Z,75.60
2017-09-22T07:18:13.544Z,74.50
2017-09-22T07:20:42.533Z,73.30
2017-09-22T07:23:11.555Z,72.70
2017-09-22T07:25:41.262Z,71.80
2017-09-22T07:28:10.128Z,71.80
2017-09-22T07:30:38.944Z,70.50
2017-09-22T07:33:08.860Z,68.80
2017-09-22T07:35:38.069Z,68.80
2017-09-22T07:38:07.337Z,67.90
2017-09-22T07:40:36.238Z,68.10
2017-09-22T07:43:05.858Z,65.50
2017-09-22T07:45:35.040Z,63.40
2017-09-22T07:48:03.819Z,63.00
2017-09-22T07:50:32.711Z,63.70
2017-09-22T07:53:01.652Z,63.70
2017-09-22T07:55:31.312Z,61.90
2017-09-22T07:58:00.608Z,61.80
2017-09-22T08:00:30.599Z,62.90
2017-09-22T08:02:59.418Z,64.00
2017-09-22T08:05:28.510Z,65.90
2017-09-22T08:07:57.404Z,66.60
2017-09-22T08:10:26.459Z,64.00
2017-09-22T08:12:55.397Z,65.80
2017-09-22T08:15:26.718Z,66.40
2017-09-22T08:17:56.778Z,65.80
2017-09-22T08:20:26.107Z,65.60
2017-09-22T08:22:55.398Z,65.60
2017-09-22T08:25:24.350Z,66.40
2017-09-22T08:27:53.245Z,66.80
2017-09-22T08:30:22.133Z,67.90
2017-09-22T08:32:51.808Z,68.60
2017-09-22T08:35:20.630Z,69.00
2017-09-22T08:37:50.365Z,69.20
2017-09-22T08:40:29.556Z,68.40
2017-09-22T08:42:58.672Z,68.40
2017-09-22T08:45:28.266Z,68.70
2017-09-22T08:48:00.104Z,68.00
2017-09-22T08:50:35.086Z,68.20
2017-09-22T08:53:04.273Z,68.70
2017-09-22T08:55:33.163Z,68.50
2017-09-22T08:58:02.266Z,68.40
2017-09-22T09:00:31.558Z,68.30
2017-09-22T09:03:00.762Z,67.70
2017-09-22T09:05:30.057Z,66.60
2017-09-22T09:07:59.254Z,66.90
2017-09-22T09:10:28.247Z,67.30
2017-09-22T09:12:57.336Z,66.70
2017-09-22T09:15:26.637Z,67.40
2017-09-22T09:17:55.944Z,67.80
2017-09-22T09:20:25.677Z,67.90
2017-09-22T09:22:55.103Z,68.60
2017-09-22T09:25:25.732Z,70.00
2017-09-22T09:27:55.983Z,69.30
2017-09-22T09:30:26.266Z,69.60
2017-09-22T09:32:55.584Z,70.20
2017-09-22T09:35:24.974Z,70.40
2017-09-22T09:37:55.115Z,70.20
2017-09-22T09:40:25.445Z,69.40
2017-09-22T09:42:55.814Z,69.40
2017-09-22T09:45:24.712Z,71.00
2017-09-22T09:47:53.770Z,71.70
2017-09-22T09:50:22.592Z,72.40
2017-09-22T09:52:53.844Z,73.90
2017-09-22T09:55:23.808Z,75.20
2017-09-22T09:57:52.862Z,75.20
2017-09-22T10:00:21.640Z,75.70
2017-09-22T10:02:50.736Z,76.40
2017-09-22T10:05:19.747Z,76.50
2017-09-22T10:07:49.713Z,76.90
2017-09-22T10:10:19.407Z,77.50
2017-09-22T10:12:48.480Z,76.40
2017-09-22T10:15:17.642Z,76.80
2017-09-22T10:17:47.113Z,76.80
2017-09-22T10:20:16.894Z,76.60
2017-09-22T10:22:46.787Z,76.50
2017-09-22T10:25:15.877Z,76.30
2017-09-22T10:27:44.965Z,76.50
2017-09-22T10:30:13.883Z,76.30
2017-09-22T10:32:43.117Z,75.60
2017-09-22T10:35:12.298Z,75.10
2017-09-22T10:37:41.426Z,74.50
2017-09-22T10:40:11.462Z,74.40
2017-09-22T10:42:41.896Z,74.30
2017-09-22T10:45:12.070Z,74.40
2017-09-22T10:47:41.374Z,74.30
2017-09-22T10:50:10.257Z,74.20
2017-09-22T10:55:14.917Z,74.20
2017-09-22T10:57:43.948Z,75.10
2017-09-22T11:00:13.043Z,73.90
2017-09-22T11:02:42.919Z,74.20
2017-09-22T11:05:12.381Z,74.20
2017-09-22T11:07:41.137Z,74.30
2017-09-22T11:10:10.404Z,74.20
2017-09-22T11:12:40.468Z,74.00
2017-09-22T11:15:09.404Z,73.80
2017-09-22T11:17:40.195Z,73.70
2017-09-22T11:20:11.219Z,73.70
2017-09-22T11:22:42.298Z,71.80
2017-09-22T11:25:16.260Z,72.60
2017-09-22T11:27:47.123Z,73.10
2017-09-22T11:30:16.833Z,72.20
2017-09-22T11:32:47.102Z,72.60
2017-09-22T11:35:18.511Z,71.70
2017-09-22T11:37:47.453Z,71.70
2017-09-22T11:40:24.791Z,71.30
2017-09-22T11:42:54.377Z,69.90
2017-09-22T11:45:23.708Z,70.20
2017-09-22T11:48:06.601Z,70.50
2017-09-22T11:50:37.932Z,70.70
2017-09-22T11:53:07.338Z,71.00
2017-09-22T11:55:36.263Z,70.00
2017-09-22T11:58:06.388Z,70.50
2017-09-22T12:00:35.246Z,70.20
2017-09-22T12:03:06.359Z,71.30
2017-09-22T12:05:35.206Z,71.20
2017-09-22T12:08:04.660Z,71.10
2017-09-22T12:10:34.156Z,71.60
2017-09-22T12:13:03.326Z,71.80
2017-09-22T12:15:33.080Z,73.20
2017-09-22T12:18:03.048Z,73.30
2017-09-22T12:20:33.058Z,73.20
2017-09-22T12:23:02.149Z,73.20
2017-09-22T12:25:31.872Z,73.80
2017-09-22T12:28:01.472Z,73.60
2017-09-22T12:30:31.080Z,73.40
2017-09-22T12:33:04.439Z,73.20
2017-09-22T12:35:34.713Z,73.10
2017-09-22T12:38:04.211Z,73.30
2017-09-22T12:40:33.406Z,73.40
2017-09-22T12:43:02.560Z,74.00
2017-09-22T12:45:32.156Z,74.40
2017-09-22T12:48:03.377Z,75.00
2017-09-22T12:50:32.652Z,74.60
2017-09-22T12:53:01.654Z,76.10
2017-09-22T12:55:30.742Z,76.40
2017-09-22T12:57:59.900Z,78.10
2017-09-22T13:00:29.206Z,78.70
2017-09-22T13:02:58.341Z,79.30
2017-09-22T13:05:29.097Z,79.30
2017-09-22T13:08:00.728Z,80.30
2017-09-22T13:10:29.615Z,79.60
2017-09-22T13:12:58.415Z,80.10
2017-09-22T13:15:27.939Z,81.20
2017-09-22T13:17:57.633Z,80.60
2017-09-22T13:20:27.684Z,80.60
2017-09-22T13:22:58.122Z,80.00
2017-09-22T13:25:28.170Z,80.00
2017-09-22T13:27:57.764Z,80.00
2017-09-22T13:30:27.799Z,80.10
2017-09-22T13:32:56.810Z,80.10
2017-09-22T13:35:26.853Z,80.40
2017-09-22T13:37:56.041Z,80.40
2017-09-22T13:40:25.709Z,79.10
2017-09-22T13:42:54.764Z,79.10
2017-09-22T13:45:24.051Z,79.50
2017-09-22T13:47:52.963Z,78.80
2017-09-22T13:50:21.940Z,79.70
2017-09-22T13:52:50.799Z,80.70
2017-09-22T13:55:19.828Z,81.10
2017-09-22T13:57:48.627Z,81.60
2017-09-22T14:00:18.409Z,81.10
2017-09-22T14:02:47.442Z,80.90
2017-09-22T14:05:17.225Z,81.20
2017-09-22T14:07:46.944Z,81.10
2017-09-22T14:10:17.087Z,75.20
2017-09-22T14:12:46.436Z,75.50
2017-09-22T14:15:16.337Z,75.20
2017-09-22T14:17:46.377Z,71.00
2017-09-22T14:20:16.539Z,71.00
2017-09-22T14:22:46.734Z,68.50
2017-09-22T14:25:16.163Z,68.40
2017-09-22T14:27:45.634Z,68.00
2017-09-22T14:30:14.801Z,67.10
2017-09-22T14:32:44.775Z,67.40
2017-09-22T14:35:14.638Z,67.80
2017-09-22T14:37:43.701Z,67.90
2017-09-22T14:40:12.732Z,64.40
2017-09-22T14:42:41.729Z,64.60
2017-09-22T14:45:10.620Z,63.20
2017-09-22T14:47:39.509Z,63.60
2017-09-22T14:50:08.612Z,63.40
2017-09-22T14:52:37.481Z,65.30
2017-09-22T14:55:08.019Z,65.40
2017-09-22T14:57:36.914Z,65.90
2017-09-22T15:00:07.333Z,67.20
2017-09-22T15:02:36.667Z,65.70
2017-09-22T15:05:05.872Z,64.50
2017-09-22T15:07:34.804Z,65.00
2017-09-22T15:10:03.992Z,64.60
2017-09-22T15:12:33.474Z,65.00
2017-09-22T15:15:02.637Z,64.30
2017-09-22T15:17:31.866Z,64.10
2017-09-22T15:20:00.795Z,64.50
2017-09-22T15:22:29.720Z,64.70
2017-09-22T15:24:58.964Z,64.60
2017-09-22T15:27:28.124Z,64.80
2017-09-22T15:29:58.963Z,63.50
2017-09-22T15:32:29.735Z,63.30
2017-09-22T15:34:58.884Z,63.30
2017-09-22T15:37:28.798Z,63.40
2017-09-22T15:39:57.893Z,62.70
2017-09-22T15:42:27.157Z,62.50
2017-09-22T15:44:56.933Z,61.80
2017-09-22T15:47:27.432Z,61.80
2017-09-22T15:49:56.619Z,61.00
2017-09-22T15:52:25.867Z,60.80
2017-09-22T15:54:55.750Z,60.40
2017-09-22T15:57:24.740Z,60.20
2017-09-22T15:59:54.658Z,60.30
2017-09-22T16:02:25.982Z,60.10
2017-09-22T16:04:55.814Z,59.20
2017-09-22T16:07:26.533Z,59.20
2017-09-22T16:09:57.148Z,59.60
2017-09-22T16:12:26.521Z,59.90
2017-09-22T16:14:57.831Z,60.10
2017-09-22T16:17:27.928Z,60.40
2017-09-22T16:19:59.917Z,60.30
2017-09-22T16:22:29.721Z,60.70
2017-09-22T16:24:59.339Z,60.90
2017-09-22T16:27:29.930Z,60.30
2017-09-22T16:29:58.871Z,60.70
2017-09-22T16:32:28.120Z,60.70
2017-09-22T16:34:58.378Z,61.20
2017-09-22T16:37:27.481Z,61.20
2017-09-22T16:39:57.141Z,61.10
2017-09-22T16:42:27.410Z,62.10
2017-09-22T16:44:58.657Z,62.40
2017-09-22T16:47:28.571Z,62.10
2017-09-22T16:49:59.558Z,62.50
2017-09-22T16:52:30.607Z,62.20
2017-09-22T16:55:03.295Z,62.50
2017-09-22T16:57:32.644Z,62.50
2017-09-22T17:00:01.707Z,62.10
2017-09-22T17:02:31.002Z,62.40
2017-09-22T17:05:00.092Z,63.10
2017-09-22T17:07:28.913Z,63.50
2017-09-22T17:09:58.385Z,63.40
2017-09-22T17:12:27.029Z,62.80
2017-09-22T17:14:56.959Z,63.00
2017-09-22T17:17:26.241Z,65.00
2017-09-22T17:19:55.269Z,64.40
2017-09-22T17:22:24.618Z,64.20
2017-09-22T17:24:53.515Z,64.90
2017-09-22T17:27:22.300Z,66.20
2017-09-22T17:29:51.293Z,66.50
2017-09-22T17:32:20.730Z,67.40
2017-09-22T17:34:49.787Z,67.90
2017-09-22T17:37:18.687Z,68.80
2017-09-22T17:39:47.691Z,69.80
2017-09-22T17:42:16.791Z,70.10
2017-09-22T17:44:46.688Z,70.10
2017-09-22T17:47:15.679Z,70.10
2017-09-22T17:49:45.680Z,70.40
2017-09-22T17:52:14.938Z,70.30
2017-09-22T17:54:44.977Z,70.90
2017-09-22T17:57:15.908Z,70.90
2017-09-22T17:59:46.322Z,71.20
2017-09-22T18:02:15.849Z,67.90
2017-09-22T18:04:45.612Z,67.90
2017-09-22T18:07:15.310Z,67.80
2017-09-22T18:09:44.322Z,68.60
2017-09-22T18:12:14.215Z,67.20
2017-09-22T18:14:43.529Z,67.60
2017-09-22T18:17:13.218Z,66.70
2017-09-22T18:19:42.552Z,66.90
2017-09-22T18:22:12.350Z,67.10
2017-09-22T18:24:41.802Z,67.20
2017-09-22T18:27:11.381Z,67.80
2017-09-22T18:29:41.401Z,67.90
2017-09-22T18:32:11.634Z,66.60
2017-09-22T18:34:41.016Z,66.60
2017-09-22T18:37:10.415Z,66.60
2017-09-22T18:39:40.310Z,66.90
2017-09-22T18:42:09.332Z,66.90
2017-09-22T18:44:38.350Z,67.00
2017-09-22T18:47:08.159Z,67.40
2017-09-22T18:49:38.167Z,67.70
2017-09-22T18:52:07.059Z,67.70
2017-09-22T18:54:36.532Z,67.80
2017-09-22T18:57:05.692Z,67.80
2017-09-22T18:59:35.537Z,68.40
2017-09-22T19:02:04.629Z,68.40
2017-09-22T19:04:34.350Z,67.90
2017-09-22T19:07:03.369Z,67.90
2017-09-22T19:09:32.431Z,67.30
2017-09-22T19:12:01.380Z,67.10
2017-09-22T19:14:31.031Z,67.60
2017-09-22T19:17:00.001Z,67.50
2017-09-22T19:19:29.651Z,67.50
2017-09-22T19:21:58.787Z,65.50
2017-09-22T19:24:27.577Z,65.60
2017-09-22T19:26:56.522Z,65.30
2017-09-22T19:29:25.308Z,65.70
2017-09-22T19:31:54.397Z,65.90
2017-09-22T19:34:24.058Z,66.30
2017-09-22T19:36:54.035Z,66.70
2017-09-22T19:39:22.808Z,66.70
2017-09-22T19:41:52.128Z,66.70
2017-09-22T19:44:20.878Z,66.90
2017-09-22T19:46:50.200Z,66.90
2017-09-22T19:49:20.318Z,67.50
2017-09-22T19:51:49.258Z,67.70
2017-09-22T19:54:19.153Z,67.80
2017-09-22T19:56:48.841Z,68.10
2017-09-22T19:59:18.724Z,67.90
2017-09-22T20:01:47.826Z,67.90
2017-09-22T20:04:16.918Z,67.80
2017-09-22T20:06:45.525Z,67.70
2017-09-22T20:09:15.005Z,67.80
2017-09-22T20:11:43.817Z,67.80
2017-09-22T20:14:13.139Z,67.90
2017-09-22T20:16:43.199Z,68.00
2017-09-22T20:19:13.200Z,68.00
2017-09-22T20:21:42.559Z,68.00
2017-09-22T20:24:12.068Z,67.90
2017-09-22T20:26:41.037Z,67.70
2017-09-22T20:29:10.156Z,67.70
2017-09-22T20:31:40.010Z,68.20
2017-09-22T20:34:08.962Z,68.20
2017-09-22T20:36:38.669Z,69.10
2017-09-22T20:39:07.706Z,69.00
2017-09-22T20:41:36.552Z,69.20
2017-09-22T20:44:05.470Z,69.50
2017-09-22T20:46:34.474Z,69.70
2017-09-22T20:49:03.534Z,70.20
2017-09-22T20:51:32.895Z,70.00
2017-09-22T20:54:02.474Z,70.20
2017-09-22T20:56:32.333Z,70.90
2017-09-22T20:59:01.657Z,70.90
2017-09-22T21:01:30.680Z,71.20
2017-09-22T21:04:00.388Z,71.60
2017-09-22T21:06:29.790Z,71.60
2017-09-22T21:08:58.652Z,71.70
2017-09-22T21:11:27.546Z,71.30
2017-09-22T21:13:56.534Z,71.50
2017-09-22T21:16:26.321Z,71.40
2017-09-22T21:18:55.140Z,71.20
2017-09-22T21:21:23.962Z,71.00
2017-09-22T21:23:52.724Z,71.40
2017-09-22T21:26:22.126Z,69.70
2017-09-22T21:28:51.215Z,69.00
2017-09-22T21:31:20.487Z,68.80
2017-09-22T21:33:51.439Z,69.50
2017-09-22T21:36:20.650Z,69.00
2017-09-22T21:38:49.546Z,68.90
2017-09-22T21:41:18.435Z,69.10
2017-09-22T21:43:47.739Z,69.30
2017-09-22T21:46:18.483Z,69.20
2017-09-22T21:48:47.367Z,69.20
2017-09-22T21:51:16.227Z,69.10
2017-09-22T21:53:45.146Z,68.90
2017-09-22T21:56:14.860Z,69.60
2017-09-22T21:58:43.919Z,69.40
2017-09-22T22:01:13.149Z,69.60
2017-09-22T22:03:47.680Z,69.30
2017-09-22T22:06:22.103Z,69.10
2017-09-22T22:08:56.528Z,69.00
2017-09-22T22:11:25.580Z,69.20
2017-09-22T22:13:54.911Z,69.80
2017-09-22T22:16:24.740Z,68.40
2017-09-22T22:18:54.236Z,68.30
2017-09-22T22:21:23.118Z,68.20
2017-09-22T22:23:52.216Z,67.80
2017-09-22T22:26:21.311Z,67.70
2017-09-22T22:28:50.408Z,67.70
2017-09-22T22:31:19.299Z,67.90
2017-09-22T22:33:48.189Z,68.00
2017-09-22T22:36:27.259Z,67.90
2017-09-22T22:38:56.621Z,68.30
2017-09-22T22:41:26.116Z,68.30
2017-09-22T22:43:56.497Z,68.50
2017-09-22T22:46:26.202Z,68.60
2017-09-22T22:48:55.611Z,68.60
2017-09-22T22:51:28.112Z,69.00
2017-09-22T22:53:57.654Z,69.00
2017-09-22T22:56:26.435Z,68.70
2017-09-22T22:58:56.019Z,68.80
2017-09-22T23:01:25.870Z,69.30
2017-09-22T23:03:55.606Z,68.80
2017-09-22T23:06:24.706Z,68.80
2017-09-22T23:08:53.939Z,69.10
2017-09-22T23:11:23.408Z,69.30
2017-09-22T23:13:52.157Z,69.50
2017-09-22T23:16:21.248Z,69.50
2017-09-22T23:18:51.214Z,69.90
2017-09-22T23:21:20.053Z,69.80
2017-09-22T23:23:48.847Z,70.00
2017-09-22T23:26:17.839Z,70.20
2017-09-22T23:28:46.527Z,70.30
2017-09-22T23:31:15.237Z,70.40
2017-09-22T23:33:44.307Z,70.40
2017-09-22T23:36:12.991Z,70.60
2017-09-22T23:38:41.676Z,70.60
2017-09-22T23:41:10.773Z,70.70
2017-09-22T23:43:39.460Z,70.40
2017-09-22T23:46:08.149Z,70.40
2017-09-22T23:48:37.036Z,70.00
2017-09-22T23:51:05.827Z,69.90
2017-09-22T23:53:34.923Z,70.00
2017-09-22T23:56:03.753Z,70.30
2017-09-22T23:58:32.500Z,70.20
